<?xml version="1.0" encoding="utf-8"?>
<gpx xmlns:xsi="http://www.w3.org/2001/XMLSchema-instance" xmlns:xsd="http://www.w3.org/2001/XMLSchema" version="1.1" creator="Shapelink.com" xmlns="http://www.topografix.com/GPX/1/1" xmlns:gpxtpx="http://www.garmin.com/xmlschemas/TrackPointExtension/v1">
  <metadata>
    <name>Övrigt 4.10 km, 2019-05-04</name>
    <desc></desc>
    <author><name>Marian Moron</name></author> 
    <time>2019-05-04T10:26:57Z</time>
  </metadata>
  <trk>
    <name>Övrigt 4.10 km, 2019-05-04</name>
    <trkseg>
      <trkpt lat="51.215520568248" lon="4.482669875745">
        <ele>3.8</ele>
        <time>2019-05-04T10:26:57Z</time>
      </trkpt>
      <trkpt lat="51.215552084192" lon="4.48339616738">
        <ele>0</ele>
        <time>2019-05-04T10:27:36Z</time>
      </trkpt>
      <trkpt lat="51.215560130816" lon="4.484123800119">
        <ele>0</ele>
        <time>2019-05-04T10:28:16Z</time>
      </trkpt>
      <trkpt lat="51.215579493005" lon="4.484847325727">
        <ele>0</ele>
        <time>2019-05-04T10:28:57Z</time>
      </trkpt>
      <trkpt lat="51.215484526078" lon="4.485251333307">
        <ele>0</ele>
        <time>2019-05-04T10:29:21Z</time>
      </trkpt>
      <trkpt lat="51.215432642117" lon="4.485290895875">
        <ele>0</ele>
        <time>2019-05-04T10:29:28Z</time>
      </trkpt>
      <trkpt lat="51.215160398005" lon="4.485284944726">
        <ele>0</ele>
        <time>2019-05-04T10:29:51Z</time>
      </trkpt>
      <trkpt lat="51.215045314518" lon="4.485314532833">
        <ele>0</ele>
        <time>2019-05-04T10:30:17Z</time>
      </trkpt>
      <trkpt lat="51.21511806941" lon="4.485288129848">
        <ele>0</ele>
        <time>2019-05-04T10:30:25Z</time>
      </trkpt>
      <trkpt lat="51.215445466424" lon="4.485264073795">
        <ele>0</ele>
        <time>2019-05-04T10:30:57Z</time>
      </trkpt>
      <trkpt lat="51.215568680354" lon="4.484681615564">
        <ele>0</ele>
        <time>2019-05-04T10:31:35Z</time>
      </trkpt>
      <trkpt lat="51.215574212408" lon="4.484516073039">
        <ele>0</ele>
        <time>2019-05-04T10:31:46Z</time>
      </trkpt>
      <trkpt lat="51.215568764173" lon="4.484332174153">
        <ele>0</ele>
        <time>2019-05-04T10:31:58Z</time>
      </trkpt>
      <trkpt lat="51.215569518544" lon="4.483598757903">
        <ele>0</ele>
        <time>2019-05-04T10:32:40Z</time>
      </trkpt>
      <trkpt lat="51.215542109731" lon="4.482877160132">
        <ele>0</ele>
        <time>2019-05-04T10:33:21Z</time>
      </trkpt>
      <trkpt lat="51.21551872423" lon="4.48220929034">
        <ele>0</ele>
        <time>2019-05-04T10:34:33Z</time>
      </trkpt>
      <trkpt lat="51.21560589599" lon="4.482014159708">
        <ele>0</ele>
        <time>2019-05-04T10:34:46Z</time>
      </trkpt>
      <trkpt lat="51.216053992364" lon="4.48199806646">
        <ele>0</ele>
        <time>2019-05-04T10:35:29Z</time>
      </trkpt>
      <trkpt lat="51.216507704611" lon="4.481978871909">
        <ele>0</ele>
        <time>2019-05-04T10:36:10Z</time>
      </trkpt>
      <trkpt lat="51.216913891485" lon="4.481856831445">
        <ele>0</ele>
        <time>2019-05-04T10:36:46Z</time>
      </trkpt>
      <trkpt lat="51.216986814015" lon="4.481429270726">
        <ele>0</ele>
        <time>2019-05-04T10:37:16Z</time>
      </trkpt>
      <trkpt lat="51.216997375209" lon="4.481121822634">
        <ele>0</ele>
        <time>2019-05-04T10:37:48Z</time>
      </trkpt>
      <trkpt lat="51.21700315872" lon="4.480401230691">
        <ele>6.6</ele>
        <time>2019-05-04T10:38:30Z</time>
      </trkpt>
      <trkpt lat="51.217047498971" lon="4.479687847182">
        <ele>5.4</ele>
        <time>2019-05-04T10:39:08Z</time>
      </trkpt>
      <trkpt lat="51.217063340762" lon="4.47896465685">
        <ele>6</ele>
        <time>2019-05-04T10:39:48Z</time>
      </trkpt>
      <trkpt lat="51.217061999658" lon="4.478902127876">
        <ele>5.4</ele>
        <time>2019-05-04T10:39:51Z</time>
      </trkpt>
      <trkpt lat="51.217122516976" lon="4.478191175118">
        <ele>2.6</ele>
        <time>2019-05-04T10:40:30Z</time>
      </trkpt>
      <trkpt lat="51.217189739814" lon="4.477479970903">
        <ele>0.2</ele>
        <time>2019-05-04T10:41:07Z</time>
      </trkpt>
      <trkpt lat="51.217232068409" lon="4.476752002888">
        <ele>0.4</ele>
        <time>2019-05-04T10:41:44Z</time>
      </trkpt>
      <trkpt lat="51.217258722851" lon="4.476004924141">
        <ele>2</ele>
        <time>2019-05-04T10:42:24Z</time>
      </trkpt>
      <trkpt lat="51.217273223538" lon="4.475270082968">
        <ele>2.2</ele>
        <time>2019-05-04T10:43:04Z</time>
      </trkpt>
      <trkpt lat="51.217324017852" lon="4.474553933432">
        <ele>3.2</ele>
        <time>2019-05-04T10:43:40Z</time>
      </trkpt>
      <trkpt lat="51.21731580359" lon="4.473822445019">
        <ele>0</ele>
        <time>2019-05-04T10:44:13Z</time>
      </trkpt>
      <trkpt lat="51.2173652568" lon="4.473092716805">
        <ele>1.2</ele>
        <time>2019-05-04T10:44:48Z</time>
      </trkpt>
      <trkpt lat="51.217347906267" lon="4.472369275016">
        <ele>5.8</ele>
        <time>2019-05-04T10:45:29Z</time>
      </trkpt>
      <trkpt lat="51.217346397525" lon="4.47234630861">
        <ele>6.6</ele>
        <time>2019-05-04T10:45:30Z</time>
      </trkpt>
      <trkpt lat="51.21735184576" lon="4.471630745807">
        <ele>16.2</ele>
        <time>2019-05-04T10:46:04Z</time>
      </trkpt>
      <trkpt lat="51.217426277032" lon="4.470911494968">
        <ele>10.8</ele>
        <time>2019-05-04T10:46:36Z</time>
      </trkpt>
      <trkpt lat="51.21745326675" lon="4.470497680565">
        <ele>6</ele>
        <time>2019-05-04T10:46:54Z</time>
      </trkpt>
      <trkpt lat="51.217456284234" lon="4.469798630105">
        <ele>12.6</ele>
        <time>2019-05-04T10:47:32Z</time>
      </trkpt>
      <trkpt lat="51.217522920339" lon="4.469089437546">
        <ele>0</ele>
        <time>2019-05-04T10:48:02Z</time>
      </trkpt>
      <trkpt lat="51.217507832919" lon="4.468789281707">
        <ele>1.4</ele>
        <time>2019-05-04T10:48:48Z</time>
      </trkpt>
      <trkpt lat="51.217525434909" lon="4.468778552875">
        <ele>1.8</ele>
        <time>2019-05-04T10:49:50Z</time>
      </trkpt>
      <trkpt lat="51.21752618928" lon="4.468797076874">
        <ele>1.8</ele>
        <time>2019-05-04T10:49:52Z</time>
      </trkpt>
      <trkpt lat="51.217525183452" lon="4.468841668582">
        <ele>1.6</ele>
        <time>2019-05-04T10:49:56Z</time>
      </trkpt>
      <trkpt lat="51.217517639742" lon="4.468882320797">
        <ele>0.6</ele>
        <time>2019-05-04T10:50:07Z</time>
      </trkpt>
      <trkpt lat="51.217519064665" lon="4.468747288388">
        <ele>0.6</ele>
        <time>2019-05-04T10:50:17Z</time>
      </trkpt>
      <trkpt lat="51.217495092431" lon="4.468609909047">
        <ele>0</ele>
        <time>2019-05-04T10:50:26Z</time>
      </trkpt>
      <trkpt lat="51.217582934743" lon="4.46833389308">
        <ele>0</ele>
        <time>2019-05-04T10:50:45Z</time>
      </trkpt>
      <trkpt lat="51.217551754075" lon="4.468327774293">
        <ele>0</ele>
        <time>2019-05-04T10:50:51Z</time>
      </trkpt>
      <trkpt lat="51.217509341661" lon="4.468378233331">
        <ele>0</ele>
        <time>2019-05-04T10:50:56Z</time>
      </trkpt>
      <trkpt lat="51.217418733322" lon="4.468366498671">
        <ele>0</ele>
        <time>2019-05-04T10:51:05Z</time>
      </trkpt>
      <trkpt lat="51.217308092242" lon="4.46822073743">
        <ele>0</ele>
        <time>2019-05-04T10:51:19Z</time>
      </trkpt>
      <trkpt lat="51.217274983737" lon="4.467895771167">
        <ele>0</ele>
        <time>2019-05-04T10:51:38Z</time>
      </trkpt>
      <trkpt lat="51.217268445855" lon="4.467557142407">
        <ele>0</ele>
        <time>2019-05-04T10:52:01Z</time>
      </trkpt>
      <trkpt lat="51.217220920482" lon="4.467476257072">
        <ele>0</ele>
        <time>2019-05-04T10:52:07Z</time>
      </trkpt>
      <trkpt lat="51.217219244102" lon="4.4674437353">
        <ele>0</ele>
        <time>2019-05-04T10:52:09Z</time>
      </trkpt>
      <trkpt lat="51.217233996246" lon="4.467367124734">
        <ele>0</ele>
        <time>2019-05-04T10:52:14Z</time>
      </trkpt>
      <trkpt lat="51.217221339577" lon="4.467011061622">
        <ele>0</ele>
        <time>2019-05-04T10:52:45Z</time>
      </trkpt>
      <trkpt lat="51.217151099255" lon="4.466687185006">
        <ele>4.8</ele>
        <time>2019-05-04T10:53:10Z</time>
      </trkpt>
      <trkpt lat="51.2169377799" lon="4.466145881904">
        <ele>0</ele>
        <time>2019-05-04T10:54:01Z</time>
      </trkpt>
      <trkpt lat="51.216949095465" lon="4.466183516635">
        <ele>0</ele>
        <time>2019-05-04T10:54:04Z</time>
      </trkpt>
      <trkpt lat="51.21705764107" lon="4.466451402159">
        <ele>0</ele>
        <time>2019-05-04T10:54:26Z</time>
      </trkpt>
      <trkpt lat="51.217128719582" lon="4.466590541699">
        <ele>0</ele>
        <time>2019-05-04T10:54:39Z</time>
      </trkpt>
      <trkpt lat="51.217275821927" lon="4.467145255841">
        <ele>0</ele>
        <time>2019-05-04T10:55:28Z</time>
      </trkpt>
      <trkpt lat="51.217231230219" lon="4.46745295539">
        <ele>1.2</ele>
        <time>2019-05-04T10:55:51Z</time>
      </trkpt>
      <trkpt lat="51.217193595488" lon="4.467711453186">
        <ele>0</ele>
        <time>2019-05-04T10:56:22Z</time>
      </trkpt>
      <trkpt lat="51.217209437279" lon="4.467754284695">
        <ele>0.2</ele>
        <time>2019-05-04T10:56:26Z</time>
      </trkpt>
      <trkpt lat="51.217290574071" lon="4.468081849347">
        <ele>0</ele>
        <time>2019-05-04T10:56:53Z</time>
      </trkpt>
      <trkpt lat="51.217504312521" lon="4.468455933544">
        <ele>0</ele>
        <time>2019-05-04T10:57:29Z</time>
      </trkpt>
      <trkpt lat="51.217531302239" lon="4.468531538282">
        <ele>0</ele>
        <time>2019-05-04T10:57:35Z</time>
      </trkpt>
      <trkpt lat="51.21756977516" lon="4.469041995992">
        <ele>1</ele>
        <time>2019-05-04T10:58:17Z</time>
      </trkpt>
      <trkpt lat="51.217516131" lon="4.46887368744">
        <ele>0</ele>
        <time>2019-05-04T10:59:29Z</time>
      </trkpt>
      <trkpt lat="51.217521076321" lon="4.468899084597">
        <ele>2.2</ele>
        <time>2019-05-04T11:00:46Z</time>
      </trkpt>
      <trkpt lat="51.217523004158" lon="4.468652321461">
        <ele>2</ele>
        <time>2019-05-04T11:02:31Z</time>
      </trkpt>
      <trkpt lat="51.217544713279" lon="4.468955997698">
        <ele>5.6</ele>
        <time>2019-05-04T11:03:52Z</time>
      </trkpt>
      <trkpt lat="51.217520992502" lon="4.468902269719">
        <ele>4.6</ele>
        <time>2019-05-04T11:04:26Z</time>
      </trkpt>
      <trkpt lat="51.217513867887" lon="4.468897240579">
        <ele>4</ele>
        <time>2019-05-04T11:07:56Z</time>
      </trkpt>
      <trkpt lat="51.217513532611" lon="4.468679478817">
        <ele>1.6</ele>
        <time>2019-05-04T11:08:20Z</time>
      </trkpt>
      <trkpt lat="51.217550664428" lon="4.468452329327">
        <ele>0.4</ele>
        <time>2019-05-04T11:08:38Z</time>
      </trkpt>
      <trkpt lat="51.21761587561" lon="4.467744561691">
        <ele>0.2</ele>
        <time>2019-05-04T11:09:38Z</time>
      </trkpt>
      <trkpt lat="51.217573044101" lon="4.468220318335">
        <ele>0</ele>
        <time>2019-05-04T11:10:31Z</time>
      </trkpt>
      <trkpt lat="51.217547395487" lon="4.468406312696">
        <ele>0</ele>
        <time>2019-05-04T11:10:44Z</time>
      </trkpt>
      <trkpt lat="51.217564326925" lon="4.46843363769">
        <ele>0</ele>
        <time>2019-05-04T11:12:00Z</time>
      </trkpt>
      <trkpt lat="51.217547311668" lon="4.468672605659">
        <ele>0</ele>
        <time>2019-05-04T11:13:09Z</time>
      </trkpt>
      <trkpt lat="51.217553681912" lon="4.468292151218">
        <ele>0</ele>
        <time>2019-05-04T11:14:37Z</time>
      </trkpt>
      <trkpt lat="51.217557118491" lon="4.468525335676">
        <ele>0</ele>
        <time>2019-05-04T11:15:14Z</time>
      </trkpt>
      <trkpt lat="51.217576313042" lon="4.469247017266">
        <ele>2.8</ele>
        <time>2019-05-04T11:16:05Z</time>
      </trkpt>
      <trkpt lat="51.217565751848" lon="4.469297141028">
        <ele>1.4</ele>
        <time>2019-05-04T11:16:09Z</time>
      </trkpt>
      <trkpt lat="51.217542031071" lon="4.469466623046">
        <ele>1.2</ele>
        <time>2019-05-04T11:16:22Z</time>
      </trkpt>
      <trkpt lat="51.217517136828" lon="4.469982696629">
        <ele>2.6</ele>
        <time>2019-05-04T11:16:57Z</time>
      </trkpt>
      <trkpt lat="51.217538510673" lon="4.470265250478">
        <ele>1.2</ele>
        <time>2019-05-04T11:17:20Z</time>
      </trkpt>
      <trkpt lat="51.217480843201" lon="4.470981316195">
        <ele>4.4</ele>
        <time>2019-05-04T11:18:11Z</time>
      </trkpt>
      <trkpt lat="51.217451674189" lon="4.471702075776">
        <ele>0</ele>
        <time>2019-05-04T11:19:01Z</time>
      </trkpt>
      <trkpt lat="51.217425438842" lon="4.472413447629">
        <ele>3.8</ele>
        <time>2019-05-04T11:19:50Z</time>
      </trkpt>
      <trkpt lat="51.217416721666" lon="4.473138314341">
        <ele>3.6</ele>
        <time>2019-05-04T11:20:35Z</time>
      </trkpt>
      <trkpt lat="51.21737699146" lon="4.473474763807">
        <ele>0.4</ele>
        <time>2019-05-04T11:20:58Z</time>
      </trkpt>
      <trkpt lat="51.217331980657" lon="4.474180855063">
        <ele>0</ele>
        <time>2019-05-04T11:21:47Z</time>
      </trkpt>
      <trkpt lat="51.217329717544" lon="4.474366262691">
        <ele>0.2</ele>
        <time>2019-05-04T11:21:59Z</time>
      </trkpt>
      <trkpt lat="51.2173149654" lon="4.475091632317">
        <ele>1</ele>
        <time>2019-05-04T11:22:42Z</time>
      </trkpt>
      <trkpt lat="51.217220417568" lon="4.475517097561">
        <ele>0</ele>
        <time>2019-05-04T11:23:09Z</time>
      </trkpt>
      <trkpt lat="51.217190410366" lon="4.476247412508">
        <ele>0.8</ele>
        <time>2019-05-04T11:23:51Z</time>
      </trkpt>
      <trkpt lat="51.217186889968" lon="4.476962975311">
        <ele>1.2</ele>
        <time>2019-05-04T11:24:32Z</time>
      </trkpt>
      <trkpt lat="51.21707859582" lon="4.477657499545">
        <ele>0</ele>
        <time>2019-05-04T11:25:07Z</time>
      </trkpt>
      <trkpt lat="51.217032998284" lon="4.47798062179">
        <ele>3.8</ele>
        <time>2019-05-04T11:25:26Z</time>
      </trkpt>
      <trkpt lat="51.217029813162" lon="4.478280023258">
        <ele>4</ele>
        <time>2019-05-04T11:25:44Z</time>
      </trkpt>
      <trkpt lat="51.217025035479" lon="4.478393095089">
        <ele>2</ele>
        <time>2019-05-04T11:25:50Z</time>
      </trkpt>
      <trkpt lat="51.216959489021" lon="4.478623597339">
        <ele>0.2</ele>
        <time>2019-05-04T11:26:05Z</time>
      </trkpt>
      <trkpt lat="51.217002907263" lon="4.479331616432">
        <ele>2</ele>
        <time>2019-05-04T11:26:47Z</time>
      </trkpt>
      <trkpt lat="51.217002488168" lon="4.479382662203">
        <ele>2.4</ele>
        <time>2019-05-04T11:26:50Z</time>
      </trkpt>
      <trkpt lat="51.216996956114" lon="4.479792369475">
        <ele>4</ele>
        <time>2019-05-04T11:27:13Z</time>
      </trkpt>
      <trkpt lat="51.217013552276" lon="4.480124460353">
        <ele>3.8</ele>
        <time>2019-05-04T11:27:34Z</time>
      </trkpt>
      <trkpt lat="51.217046576962" lon="4.480828539953">
        <ele>0</ele>
        <time>2019-05-04T11:28:18Z</time>
      </trkpt>
      <trkpt lat="51.217042469831" lon="4.481136574778">
        <ele>0</ele>
        <time>2019-05-04T11:28:44Z</time>
      </trkpt>
      <trkpt lat="51.216998800132" lon="4.481736132085">
        <ele>0</ele>
        <time>2019-05-04T11:29:22Z</time>
      </trkpt>
      <trkpt lat="51.216981784875" lon="4.481790698254">
        <ele>0</ele>
        <time>2019-05-04T11:29:26Z</time>
      </trkpt>
      <trkpt lat="51.216946329438" lon="4.481828416804">
        <ele>0</ele>
        <time>2019-05-04T11:29:31Z</time>
      </trkpt>
      <trkpt lat="51.216782044198" lon="4.4819611861">
        <ele>1.6</ele>
        <time>2019-05-04T11:29:53Z</time>
      </trkpt>
      <trkpt lat="51.216333193453" lon="4.482007957102">
        <ele>0.4</ele>
        <time>2019-05-04T11:30:30Z</time>
      </trkpt>
      <trkpt lat="51.215876798998" lon="4.482038886313">
        <ele>0</ele>
        <time>2019-05-04T11:31:08Z</time>
      </trkpt>
      <trkpt lat="51.215422500018" lon="4.481939644617">
        <ele>0</ele>
        <time>2019-05-04T11:31:46Z</time>
      </trkpt>
      <trkpt lat="51.214979181327" lon="4.481821795103">
        <ele>0</ele>
        <time>2019-05-04T11:32:24Z</time>
      </trkpt>
      <trkpt lat="51.214812632974" lon="4.481640746063">
        <ele>0.6</ele>
        <time>2019-05-04T11:32:58Z</time>
      </trkpt>
      <trkpt lat="51.214896116698" lon="4.481778209223">
        <ele>0.4</ele>
        <time>2019-05-04T11:33:09Z</time>
      </trkpt>
      <trkpt lat="51.214879604355" lon="4.481787932227">
        <ele>0</ele>
        <time>2019-05-04T11:33:40Z</time>
      </trkpt>
      <trkpt lat="51.215301297744" lon="4.481824980225">
        <ele>0.4</ele>
        <time>2019-05-04T11:34:21Z</time>
      </trkpt>
      <trkpt lat="51.21534354252" lon="4.481832775392">
        <ele>0.8</ele>
        <time>2019-05-04T11:34:25Z</time>
      </trkpt>
      <trkpt lat="51.215367933849" lon="4.481845096785">
        <ele>1</ele>
        <time>2019-05-04T11:34:27Z</time>
      </trkpt>
      <trkpt lat="51.215489303761" lon="4.481895891099">
        <ele>2.8</ele>
        <time>2019-05-04T11:34:38Z</time>
      </trkpt>
      <trkpt lat="51.215817036051" lon="4.482007873283">
        <ele>1.4</ele>
        <time>2019-05-04T11:35:08Z</time>
      </trkpt>
      <trkpt lat="51.216081568815" lon="4.482004520523">
        <ele>3.4</ele>
        <time>2019-05-04T11:35:33Z</time>
      </trkpt>
      <trkpt lat="51.216125909066" lon="4.481992282949">
        <ele>3</ele>
        <time>2019-05-04T11:35:37Z</time>
      </trkpt>
      <trkpt lat="51.2161834089" lon="4.481990941845">
        <ele>4.4</ele>
        <time>2019-05-04T11:35:43Z</time>
      </trkpt>
      <trkpt lat="51.2162085546" lon="4.48208942917">
        <ele>3</ele>
        <time>2019-05-04T11:35:50Z</time>
      </trkpt>
      <trkpt lat="51.216225653676" lon="4.482137289819">
        <ele>2</ele>
        <time>2019-05-04T11:35:53Z</time>
      </trkpt>
      <trkpt lat="51.216191036429" lon="4.482330576433">
        <ele>1.4</ele>
        <time>2019-05-04T11:36:04Z</time>
      </trkpt>
      <trkpt lat="51.215785687745" lon="4.482298809032">
        <ele>1.8</ele>
        <time>2019-05-04T11:36:55Z</time>
      </trkpt>
    </trkseg>
  </trk>
</gpx>